METAR Principali Aeroporti Italiani

 

LIPF - Ferrara, It
Distance from station: 8 km
Updated: Thu, 15-Nov-2018 4:55pm CET
Clear
Clear
 Wind from calm
Wind: Calm
Temperature: 54°F , 12°C
Dew Point: 46°F , 8°C
Humidity: 77%
Barometer: 30.24 inHg , 1024 hPa
Summary: Clear
Visibility: greater than 7 miles , 10 km
2018/11/15 15:55 LIPF 151555Z 00000KT CAVOK 12/08 Q1024
LIPE - Bologna Borgo Panigale, It
Distance from station: 46 km
Updated: Thu, 15-Nov-2018 5:20pm CET
Mist, Partly cloudy
Mist, Partly cloudy
 Wind from W
Wind: W 5 mph , 7 km/h
Temperature: 54°F , 12°C
Dew Point: 50°F , 10°C
Humidity: 88%
Barometer: 30.24 inHg , 1024 hPa
Summary: Mist
Clouds: Partly Cloudy
Visibility: 2 miles , 4 km
Cloud details: Partly Cloudy 1500 ft
Partly Cloudy 3000 ft
2018/11/15 16:20 LIPE 151620Z 27004KT 4000 BR SCT015 SCT030 12/10 Q1024
LIMF - Torino Caselle, It
Distance from station: 320 km
Updated: Thu, 15-Nov-2018 5:20pm CET
Mist, Mostly cloudy
Mist, Mostly cloudy
 Wind from E
Wind: E 1 mph , 2 km/h
Temperature: 52°F , 11°C
Dew Point: 52°F , 11°C
Humidity: 100%
Barometer: 30.24 inHg , 1024 hPa
Summary: Mist
Clouds: Mostly Cloudy
Visibility: 2 miles , 4 km
Cloud details: Mostly Cloudy 3000 ft
2018/11/15 16:20 LIMF 151620Z 08001KT 3500 BR BKN030 11/11 Q1024
 
LIML - Milano Malpensa, It
Distance from station: 249 km
Updated: Thu, 15-Nov-2018 5:20pm CET
Mist, Overcast
Mist, Overcast
 Wind from SE
Wind: SE 3 mph , 6 km/h
Temperature: 55°F , 13°C
Dew Point: 54°F , 12°C
Humidity: 94%
Barometer: 30.24 inHg , 1024 hPa
Summary: Mist
Clouds: Overcast
Visibility: 2 miles , 4 km
Cloud details: Partly Cloudy 800 ft
Overcast 4000 ft
2018/11/15 16:20 LIML 151620Z 13003KT 090V160 4000 BR SCT008 OVC040 13/12 Q1024 NOSIG
LIME - Bergamo Orio al Serio, It
Distance from station: 181 km
Updated: Thu, 15-Nov-2018 5:20pm CET
Mist, Mostly cloudy
Mist, Mostly cloudy
 Wind from E
Wind: E 2 mph , 4 km/h
Temperature: 54°F , 12°C
Dew Point: 48°F , 9°C
Humidity: 82%
Barometer: 30.24 inHg , 1024 hPa
Summary: Mist
Clouds: Mostly Cloudy
Visibility: 3 miles , 5 km
Cloud details: Mostly Cloudy 4000 ft
2018/11/15 16:20 LIME 151620Z 08002KT 5000 BR BKN040 12/09 Q1024 NOSIG
LIPZ - Venezia Tessera, It
Distance from station: 93 km
Updated: Thu, 15-Nov-2018 5:20pm CET
Clear
Clear
 Wind from varies
Wind: varies 1 mph , 2 km/h
Temperature: 55°F , 13°C
Dew Point: 43°F , 6°C
Humidity: 63%
Barometer: 30.24 inHg , 1024 hPa
Summary: Clear
Visibility: greater than 7 miles , 10 km
2018/11/15 16:20 LIPZ 151620Z VRB01KT CAVOK 13/06 Q1024 NOSIG
 
LIVT - Trieste, It
Distance from station: 179 km
Updated: Thu, 15-Nov-2018 4:55pm CET
Clear
Clear
 Wind from NNE
Wind: NNE 15 mph , 24 km/h, Gust: 28 mph , 44 km/h
Temperature: 57°F , 14°C
Dew Point: 36°F , 2°C
Humidity: 44%
Barometer: 30.21 inHg , 1023 hPa
Summary: Clear
Visibility: greater than 7 miles , 10 km
2018/11/15 15:55 LIVT 151555Z 03013G24KT CAVOK 14/02 Q1023 RMK SCT FEW100 QUK 2 QUL 1 NE VIS MAR 20 KM VIS MIN 9999
LIMJ - Genova, It
Distance from station: 229 km
Updated: Thu, 15-Nov-2018 5:20pm CET
Clear
Clear
 Wind from NNE
Wind: NNE 12 mph , 19 km/h
Temperature: 59°F , 15°C
Dew Point: 48°F , 9°C
Humidity: 68%
Barometer: 30.18 inHg , 1022 hPa
Summary: Clear
Visibility: greater than 7 miles , 10 km
2018/11/15 16:20 LIMJ 151620Z 02010KT 340V050 CAVOK 15/09 Q1022
LIRQ - Firenze Amerigo Vespucci, It
Distance from station: 119 km
Updated: Thu, 15-Nov-2018 5:20pm CET
Clear
Clear
 Wind from NNW
Wind: NNW 10 mph , 17 km/h
Temperature: 59°F , 15°C
Dew Point: 45°F , 7°C
Humidity: 59%
Barometer: 30.18 inHg , 1022 hPa
Summary: Clear
Visibility: greater than 7 miles , 10 km
2018/11/15 16:20 LIRQ 151620Z 33009KT CAVOK 15/07 Q1022
 
LIPY - Ancona, It
Distance from station: 189 km
Updated: Thu, 15-Nov-2018 4:50pm CET
Partly Cloudy
Partly Cloudy
 Wind from NW
Wind: NW 8 mph , 13 km/h
Temperature: 54°F , 12°C
Dew Point: 52°F , 11°C
Humidity: 94%
Barometer: 30.24 inHg , 1024 hPa
Clouds: Partly Cloudy
Visibility: 6 miles , 10 km
Cloud details: Partly Cloudy 1000 ft
2018/11/15 15:50 LIPY 151550Z 31007KT 290V360 9999 SCT010 12/11 Q1024
LIBP - Pescara, It
Distance from station: 333 km
Updated: Thu, 15-Nov-2018 4:50pm CET
Partly Cloudy
Partly Cloudy
 Wind from NW
Wind: NW 3 mph , 6 km/h
Temperature: 59°F , 15°C
Dew Point: 54°F , 12°C
Humidity: 82%
Barometer: 30.21 inHg , 1023 hPa
Clouds: Partly Cloudy
Visibility: 6 miles , 10 km
Cloud details: Few Clouds 2000 ft
Partly Cloudy 5000 ft
2018/11/15 15:50 LIBP 151550Z 31003KT 9999 FEW020 SCT050 15/12 Q1023
LIRF - Roma-Fiumicino, It
Distance from station: km
Updated: Thu, 15-Nov-2018 5:20pm CET
Clear
Clear
 Wind from NW
Wind: NW 3 mph , 6 km/h
Temperature: 59°F , 15°C
Dew Point: 54°F , 12°C
Humidity: 82%
Barometer: 30.15 inHg , 1021 hPa
Summary: Clear
Visibility: greater than 7 miles , 10 km
2018/11/15 16:20 LIRF 151620Z 32003KT CAVOK 15/12 Q1021 NOSIG
 
LIRN - Napoli Capodichino, It
Distance from station: km
Updated: Thu, 15-Nov-2018 5:20pm CET
Partly Cloudy
Partly Cloudy
 Wind from ENE
Wind: ENE 6 mph , 9 km/h
Temperature: 61°F , 16°C
Dew Point: 48°F , 9°C
Humidity: 63%
Barometer: 30.15 inHg , 1021 hPa
Clouds: Partly Cloudy
Visibility: 6 miles , 10 km
Cloud details: Few Clouds 5000 ft
Partly Cloudy 8000 ft
2018/11/15 16:20 LIRN 151620Z 06005KT 9999 FEW050 SCT080 16/09 Q1021 NOSIG
LIBD - Bari Palese, It
Distance from station: km
Updated: Thu, 15-Nov-2018 5:20pm CET
Clear
Clear
 Wind from NNW
Wind: NNW 5 mph , 7 km/h
Temperature: 55°F , 13°C
Dew Point: 45°F , 7°C
Humidity: 67%
Barometer: 30.15 inHg , 1021 hPa
Summary: Clear
Visibility: greater than 7 miles , 10 km
2018/11/15 16:20 LIBD 151620Z 33004KT 290V020 CAVOK 13/07 Q1021
LIBG - Taranto Grottaglie, It
Distance from station: km
Updated: Thu, 15-Nov-2018 4:50pm CET
Clear
Clear
 Wind from N
Wind: N 6 mph , 9 km/h
Temperature: 55°F , 13°C
Dew Point: 46°F , 8°C
Humidity: 72%
Barometer: 30.12 inHg , 1020 hPa
Summary: Clear
Visibility: greater than 7 miles , 10 km
2018/11/15 15:50 LIBG 151550Z 01005KT CAVOK 13/08 Q1020
 
LICR - Reggio Calabria, It
Distance from station: km
Updated: Thu, 15-Nov-2018 4:50pm CET
Clear
Clear
 Wind from SE
Wind: SE 5 mph , 7 km/h
Temperature: 63°F , 17°C
Dew Point: 52°F , 11°C
Humidity: 68%
Barometer: 30.12 inHg , 1020 hPa
Summary: Clear
Visibility: greater than 7 miles , 10 km
2018/11/15 15:50 LICR 151550Z 14004KT CAVOK 17/11 Q1020
LICJ - Palermo Punta Raisi, It
Distance from station: km
Updated: Thu, 15-Nov-2018 5:20pm CET
Clear
Clear
 Wind from NE
Wind: NE 7 mph , 11 km/h
Temperature: 61°F , 16°C
Dew Point: 54°F , 12°C
Humidity: 77%
Barometer: 30.09 inHg , 1019 hPa
Summary: Clear
Visibility: greater than 7 miles , 10 km
2018/11/15 16:20 LICJ 151620Z 05006KT CAVOK 16/12 Q1019
LICC - Catania Fontanarossa, It
Distance from station: km
Updated: Thu, 15-Nov-2018 5:20pm CET
Clear
Clear
 Wind from S
Wind: S 1 mph , 2 km/h
Temperature: 64°F , 18°C
Dew Point: 54°F , 12°C
Humidity: 68%
Barometer: 30.09 inHg , 1019 hPa
Summary: Clear
Visibility: greater than 7 miles , 10 km
2018/11/15 16:20 LICC 151620Z 17001KT CAVOK 18/12 Q1019
 
LIEE - Cagliari Elmas, It
Distance from station: km
Updated: Thu, 15-Nov-2018 5:20pm CET
Clear
Clear
 Wind from SE
Wind: SE 8 mph , 13 km/h
Temperature: 64°F , 18°C
Dew Point: 57°F , 14°C
Humidity: 78%
Barometer: 30.09 inHg , 1019 hPa
Summary: Clear
Visibility: greater than 7 miles , 10 km
2018/11/15 16:20 LIEE 151620Z 14007KT CAVOK 18/14 Q1019
LIEO - Olbia, It
Distance from station: km
Updated: Thu, 15-Nov-2018 5:20pm CET
Few Clouds
Few Clouds
 Wind from varies
Wind: varies 1 mph , 2 km/h
Temperature: 63°F , 17°C
Dew Point: 61°F , 16°C
Humidity: 94%
Barometer: 30.12 inHg , 1020 hPa
Clouds: Few Clouds
Visibility: 6 miles , 10 km
Cloud details: Few Clouds 2500 ft
2018/11/15 16:20 LIEO 151620Z VRB01KT 9999 FEW025 17/16 Q1020
LICG - Pantelleria, It
Distance from station: km
Updated: Thu, 15-Nov-2018 4:55pm CET
Few Clouds
Few Clouds
 Wind from E
Wind: E 3 mph , 6 km/h
Temperature: 63°F , 17°C
Dew Point: 57°F , 14°C
Humidity: 83%
Barometer: 30.06 inHg , 1018 hPa
Clouds: Few Clouds
Visibility: 6 miles , 10 km
Cloud details: Few Clouds 2000 ft
2018/11/15 15:55 LICG 151555Z 09003KT 9999 FEW020 17/14 Q1018

Metar display script from Saratoga-Weather.org